Time;durP1;ratioP1;P1;durP2;ratioP2;P2;SDS_P1;SDS_P2;PMS_P1;PMS_P2;Temp;Humidity;BMP_temperature;BMP_pressure;BME280_temperature;BME280_humidity;BME280_pressure;Samples;Min_cycle;Max_cycle;Signal;HPM_P1;HPM_P2
2022/09/11 00:01:28;;;;;;;2.10;1.85;;;;;;;15.12;86.95;98015.03;6250228;22;20033;-86
2022/09/11 00:03:55;;;;;;;2.55;1.88;;;;;;;15.13;85.99;98016.66;6276055;22;20066;-86
2022/09/11 00:06:25;;;;;;;2.15;1.95;;;;;;;15.15;86.86;98020.66;6276961;22;20095;-88
2022/09/11 00:09:03;;;;;;;3.47;2.10;;;;;;;15.08;87.04;98009.41;6224052;22;20022;-86
2022/09/11 00:11:46;;;;;;;4.78;2.30;;;;;;;15.02;86.52;98007.69;6254627;22;20016;-88
2022/09/11 00:14:13;;;;;;;2.70;2.20;;;;;;;14.97;87.22;98007.56;6222494;22;20066;-87
2022/09/11 00:16:44;;;;;;;2.92;2.40;;;;;;;14.97;86.76;98005.72;6250412;22;20019;-88
2022/09/11 00:19:16;;;;;;;2.33;2.13;;;;;;;15.02;87.51;98009.53;6277604;22;20020;-91
2022/09/11 00:21:44;;;;;;;2.20;2.08;;;;;;;14.99;86.70;98008.13;6251845;22;20102;-88
2022/09/11 00:24:11;;;;;;;2.20;1.98;;;;;;;14.90;87.36;97999.75;6251762;22;20449;-87
2022/09/11 00:26:39;;;;;;;2.47;2.13;;;;;;;14.93;86.98;98011.69;6221986;23;20072;-87
2022/09/11 00:29:07;;;;;;;4.35;2.60;;;;;;;14.92;86.77;98013.53;6247228;23;20492;-87
2022/09/11 00:31:33;;;;;;;2.08;1.90;;;;;;;14.92;86.96;98012.72;6249045;23;20466;-85
2022/09/11 00:34:00;;;;;;;2.85;2.22;;;;;;;14.93;87.52;98014.31;6246907;23;20016;-88
2022/09/11 00:36:33;;;;;;;2.83;2.00;;;;;;;15.00;86.88;98007.13;6220810;23;20020;-88
2022/09/11 00:39:00;;;;;;;2.42;2.00;;;;;;;15.01;86.81;98013.22;6248637;23;20023;-87
2022/09/11 00:41:35;;;;;;;2.65;1.80;;;;;;;14.94;87.04;98002.75;6246517;23;20330;-85
2022/09/11 00:44:11;;;;;;;2.00;1.80;;;;;;;15.03;86.48;98005.84;6247156;23;20091;-86
2022/09/11 00:46:45;;;;;;;2.78;2.20;;;;;;;14.98;86.54;98011.81;6220128;23;20023;-86
2022/09/11 00:49:19;;;;;;;2.50;1.70;;;;;;;15.01;86.40;98000.81;6218836;23;20038;-85
2022/09/11 00:51:59;;;;;;;2.22;1.80;;;;;;;15.04;85.87;97997.69;6245093;23;20311;-87
2022/09/11 00:54:32;;;;;;;2.47;2.00;;;;;;;15.02;86.84;97999.75;6220648;23;20027;-88
2022/09/11 00:57:06;;;;;;;2.10;2.00;;;;;;;14.95;85.35;98001.72;6193771;23;20020;-86
2022/09/11 00:59:33;;;;;;;3.83;1.95;;;;;;;14.92;86.43;97994.25;6246004;23;20550;-85
2022/09/11 01:02:01;;;;;;;2.42;1.48;;;;;;;14.96;86.90;98001.47;6247069;23;20099;-87
2022/09/11 01:04:28;;;;;;;2.00;1.60;;;;;;;14.93;86.96;98003.75;6247742;23;20406;-86
2022/09/11 01:06:58;;;;;;;1.80;1.70;;;;;;;14.89;86.02;98000.78;6246605;23;20402;-86
2022/09/11 01:09:28;;;;;;;1.70;1.60;;;;;;;14.86;85.46;97995.16;6214288;23;20016;-85
2022/09/11 01:12:12;;;;;;;1.70;1.60;;;;;;;14.91;86.24;98003.19;6217791;23;20094;-83
2022/09/11 01:15:14;;;;;;;2.15;1.60;;;;;;;14.85;86.13;97993.56;6242276;23;20035;-85
2022/09/11 01:18:11;;;;;;;1.58;1.48;;;;;;;14.75;87.42;97998.59;6217903;23;20091;-86
2022/09/11 01:21:07;;;;;;;2.45;1.45;;;;;;;14.71;88.18;98003.53;6189551;23;20115;-84
2022/09/11 01:24:18;;;;;;;1.67;1.58;;;;;;;14.60;88.56;97988.50;6216653;23;20035;-85
2022/09/11 01:27:12;;;;;;;1.70;1.45;;;;;;;14.43;90.11;97985.69;6243621;22;20095;-85
2022/09/11 01:29:51;;;;;;;2.42;1.70;;;;;;;14.31;91.01;97996.19;6216474;23;20026;-85
2022/09/11 01:32:34;;;;;;;2.05;1.85;;;;;;;14.30;91.72;97999.06;6217363;23;20043;-86
2022/09/11 01:35:10;;;;;;;1.70;1.52;;;;;;;14.27;92.15;97987.13;6243916;23;20089;-82
2022/09/11 01:37:53;;;;;;;2.42;1.70;;;;;;;14.28;91.96;97998.50;6191781;23;20111;-85
2022/09/11 01:40:30;;;;;;;2.25;1.60;;;;;;;14.25;91.92;97991.81;6217080;23;20346;-87
2022/09/11 01:43:16;;;;;;;2.05;1.80;;;;;;;14.24;91.76;97978.88;6191490;23;20060;-86
2022/09/11 01:45:48;;;;;;;1.40;1.30;;;;;;;14.40;91.97;97996.69;6218393;23;20111;-89
2022/09/11 01:48:21;;;;;;;2.08;1.88;;;;;;;14.26;91.73;97969.69;6196274;23;20079;-90
2022/09/11 01:50:52;;;;;;;1.30;1.20;;;;;;;14.41;91.64;97983.28;6223857;23;20019;-91
2022/09/11 01:53:26;;;;;;;1.13;1.10;;;;;;;14.47;91.67;97980.78;6195311;23;20020;-87
2022/09/11 01:56:08;;;;;;;2.15;1.40;;;;;;;14.45;91.41;97973.88;6243885;23;20377;-87
2022/09/11 01:58:36;;;;;;;1.60;1.50;;;;;;;14.52;90.98;97979.06;6216342;23;20024;-88
2022/09/11 02:01:17;;;;;;;1.77;1.52;;;;;;;14.58;90.72;97994.00;6243388;23;20020;-87
2022/09/11 02:03:54;;;;;;;1.75;1.65;;;;;;;14.58;90.87;97977.38;6218270;23;20047;-87
2022/09/11 02:06:31;;;;;;;2.72;2.00;;;;;;;14.62;89.92;97983.78;6243795;23;20091;-87
2022/09/11 02:09:07;;;;;;;3.15;2.00;;;;;;;14.52;89.17;97973.81;6239592;23;20054;-84
2022/09/11 02:11:41;;;;;;;1.80;1.70;;;;;;;14.52;90.21;97983.56;6217416;23;20488;-87
2022/09/11 02:14:28;;;;;;;2.83;1.60;;;;;;;14.66;90.61;97979.66;6192146;23;20016;-88
2022/09/11 02:17:49;;;;;;;1.00;1.00;;;;;;;14.73;89.76;97975.88;6192343;23;20341;-85
2022/09/11 02:20:16;;;;;;;1.20;1.20;;;;;;;14.81;89.87;97981.84;6243564;23;20438;-85
2022/09/11 02:22:43;;;;;;;1.10;1.10;;;;;;;14.80;90.17;97974.94;6216910;23;20013;-87
2022/09/11 02:25:10;;;;;;;1.52;1.10;;;;;;;14.81;90.77;97963.34;6216709;23;20099;-85
2022/09/11 02:27:37;;;;;;;1.00;1.00;;;;;;;14.90;90.38;97969.91;6216574;23;20023;-85
2022/09/11 02:30:05;;;;;;;1.50;1.20;;;;;;;14.86;90.27;97968.75;6243444;23;20464;-86
2022/09/11 02:32:37;;;;;;;2.00;1.00;;;;;;;14.94;91.42;97968.44;6216860;23;20131;-86
2022/09/11 02:35:05;;;;;;;0.80;0.80;;;;;;;14.95;91.76;97960.25;6243777;23;20020;-86
2022/09/11 02:37:59;;;;;;;1.20;1.10;;;;;;;15.03;91.38;97964.38;6217191;23;20520;-86
2022/09/11 02:41:08;;;;;;;2.28;2.08;;;;;;;14.82;90.55;97984.28;6217873;23;20054;-85
2022/09/11 02:43:54;;;;;;;1.95;1.70;;;;;;;14.87;91.14;97970.34;6187810;23;20020;-84
2022/09/11 02:46:42;;;;;;;1.80;1.70;;;;;;;14.85;90.98;97980.34;6216057;23;20024;-84
2022/09/11 02:49:56;;;;;;;2.10;1.60;;;;;;;14.83;90.93;97975.31;6192060;23;20426;-85
2022/09/11 02:53:01;;;;;;;1.67;1.40;;;;;;;14.82;90.61;97978.19;6193463;23;20454;-90
2022/09/11 02:56:05;;;;;;;1.30;1.20;;;;;;;14.81;90.51;97977.34;6217979;23;20430;-89
2022/09/11 02:58:49;;;;;;;1.70;1.60;;;;;;;14.76;90.02;97973.81;6247014;23;20091;-91
2022/09/11 03:01:17;;;;;;;2.28;1.35;;;;;;;14.77;90.46;97970.16;6218061;23;20016;-90
2022/09/11 03:03:45;;;;;;;1.25;1.15;;;;;;;14.76;90.41;97971.19;6218419;23;20024;-88
2022/09/11 03:06:26;;;;;;;1.00;1.00;;;;;;;14.80;90.42;97969.66;6245481;23;20020;-92
2022/09/11 03:08:52;;;;;;;1.52;1.42;;;;;;;14.79;90.17;97976.00;6219491;23;20142;-91
2022/09/11 03:11:23;;;;;;;1.30;1.20;;;;;;;14.76;90.07;97968.53;6219285;23;20090;-89
2022/09/11 03:13:50;;;;;;;1.30;1.20;;;;;;;14.81;90.21;97971.28;6245810;23;20020;-92
2022/09/11 03:16:19;;;;;;;1.40;1.30;;;;;;;14.83;89.92;97977.16;6222560;23;20043;-92
2022/09/11 03:18:46;;;;;;;1.45;1.35;;;;;;;14.84;90.12;97982.19;6197645;23;20472;-90
2022/09/11 03:21:13;;;;;;;2.03;1.48;;;;;;;14.76;89.58;97972.00;6196417;23;20217;-87
2022/09/11 03:23:39;;;;;;;1.52;1.42;;;;;;;14.76;90.05;97979.91;6246765;23;20059;-91
2022/09/11 03:26:06;;;;;;;1.77;1.40;;;;;;;14.77;89.94;97980.72;6221211;23;20042;-89
2022/09/11 03:28:33;;;;;;;1.52;1.42;;;;;;;14.75;90.11;97980.91;6246725;23;20027;-89
2022/09/11 03:30:59;;;;;;;1.50;1.40;;;;;;;14.79;90.21;97978.63;6220678;23;20031;-90
2022/09/11 03:33:27;;;;;;;2.17;1.80;;;;;;;14.75;90.35;97985.38;6245702;23;20054;-93
2022/09/11 03:35:53;;;;;;;1.85;1.75;;;;;;;14.64;90.35;97976.47;6195591;23;20031;-87
2022/09/11 03:38:20;;;;;;;1.67;1.55;;;;;;;14.71;90.59;97983.22;6221466;23;20067;-88
2022/09/11 03:40:46;;;;;;;3.03;1.80;;;;;;;14.66;90.49;97980.47;6219927;23;20378;-88
2022/09/11 03:43:15;;;;;;;1.83;1.73;;;;;;;14.64;90.41;97976.47;6220129;23;20103;-89
2022/09/11 03:45:43;;;;;;;1.80;1.70;;;;;;;14.71;90.41;97988.50;6219842;23;20487;-87
2022/09/11 03:48:10;;;;;;;1.90;1.70;;;;;;;14.70;90.60;97992.19;6246171;23;20070;-88
2022/09/11 03:50:37;;;;;;;1.90;1.80;;;;;;;14.67;90.40;97989.97;6195639;23;20345;-86
2022/09/11 03:53:03;;;;;;;3.83;1.90;;;;;;;14.70;90.77;97989.53;6247206;23;20111;-87
2022/09/11 03:55:30;;;;;;;2.20;1.98;;;;;;;14.68;90.78;97993.41;6220112;23;20397;-88
2022/09/11 03:57:58;;;;;;;1.90;1.70;;;;;;;14.72;91.10;98005.94;6247458;23;20333;-88
2022/09/11 04:00:25;;;;;;;1.75;1.50;;;;;;;14.71;91.21;97993.78;6220789;23;20018;-89
2022/09/11 04:02:54;;;;;;;3.17;1.98;;;;;;;14.64;91.40;97990.47;6220442;23;20024;-86
2022/09/11 04:05:25;;;;;;;1.55;1.45;;;;;;;14.77;91.29;98002.63;6246607;23;20115;-88
2022/09/11 04:07:53;;;;;;;2.67;2.08;;;;;;;14.69;90.78;97995.03;6219149;23;20066;-88
2022/09/11 04:10:20;;;;;;;2.38;2.17;;;;;;;14.68;90.95;97996.88;6193125;23;20580;-89
2022/09/11 04:12:47;;;;;;;2.00;1.80;;;;;;;14.69;91.12;98003.78;6246430;23;20039;-88
2022/09/11 04:15:15;;;;;;;1.73;1.63;;;;;;;14.68;91.20;98002.16;6220261;23;20062;-88
2022/09/11 04:17:42;;;;;;;1.83;1.63;;;;;;;14.77;91.20;98017.66;6219745;23;20020;-89
2022/09/11 04:20:09;;;;;;;1.92;1.75;;;;;;;14.74;91.25;98008.34;6219922;23;20107;-88
2022/09/11 04:22:37;;;;;;;2.47;2.28;;;;;;;14.78;90.99;98009.50;6195288;23;20062;-87
2022/09/11 04:25:05;;;;;;;2.10;2.00;;;;;;;14.78;91.14;98016.63;6252483;22;20023;-89
2022/09/11 04:27:32;;;;;;;3.05;1.90;;;;;;;14.75;91.15;98009.16;6277318;22;20027;-92
2022/09/11 04:29:58;;;;;;;2.40;2.20;;;;;;;14.77;91.14;98022.94;6224284;22;20015;-87
2022/09/11 04:32:25;;;;;;;2.08;1.90;;;;;;;14.78;91.29;98024.56;6276919;22;20024;-89
2022/09/11 04:34:52;;;;;;;2.17;1.98;;;;;;;14.72;90.87;98016.50;6249580;22;20520;-87
2022/09/11 04:37:19;;;;;;;1.85;1.75;;;;;;;14.78;91.31;98020.06;6250483;22;20024;-89
2022/09/11 04:39:47;;;;;;;1.83;1.73;;;;;;;14.83;90.93;98022.84;6249474;22;20022;-88
2022/09/11 04:42:14;;;;;;;1.70;1.60;;;;;;;14.85;91.14;98025.25;6225036;22;20059;-88
2022/09/11 04:44:41;;;;;;;1.90;1.70;;;;;;;14.82;90.79;98025.72;6249699;22;20030;-86
2022/09/11 04:47:08;;;;;;;1.73;1.63;;;;;;;14.81;91.06;98019.59;6277131;22;20448;-88
2022/09/11 04:49:34;;;;;;;2.30;1.60;;;;;;;14.89;91.17;98031.69;6225550;22;20019;-90
2022/09/11 04:52:04;;;;;;;1.90;1.70;;;;;;;14.85;91.02;98025.25;6277817;22;20019;-88
2022/09/11 04:54:35;;;;;;;1.70;1.60;;;;;;;14.84;91.06;98027.06;6250579;22;20030;-87
2022/09/11 04:57:03;;;;;;;;;;;;;;;14.90;91.03;98043.84;6277378;22;20110;-87
2022/09/11 04:59:29;;;;;;;1.70;1.60;;;;;;;14.90;91.16;98041.22;6249749;22;19938;-89
2022/09/11 05:01:56;;;;;;;2.95;2.65;;;;;;;14.85;91.39;98041.09;6276320;22;20019;-88
2022/09/11 05:04:23;;;;;;;1.90;1.80;;;;;;;14.88;91.22;98040.63;6277192;22;20016;-88
2022/09/11 05:06:52;;;;;;;1.77;1.63;;;;;;;14.89;91.31;98048.31;6225684;22;20062;-89
2022/09/11 05:09:19;;;;;;;2.33;2.13;;;;;;;14.87;90.70;98049.56;6247182;22;20016;-90
2022/09/11 05:11:45;;;;;;;2.80;2.60;;;;;;;14.83;90.85;98064.28;6248941;22;20019;-89
2022/09/11 05:14:12;;;;;;;1.90;1.70;;;;;;;14.87;91.12;98053.03;6250638;22;20102;-89
2022/09/11 05:16:39;;;;;;;2.95;2.75;;;;;;;14.89;91.08;98061.53;6249884;22;20020;-88
2022/09/11 05:19:05;;;;;;;1.90;1.80;;;;;;;14.93;90.87;98067.13;6276278;22;20329;-90
2022/09/11 05:21:33;;;;;;;1.90;1.80;;;;;;;14.99;90.45;98061.78;6249876;22;20085;-88
2022/09/11 05:24:02;;;;;;;1.77;1.63;;;;;;;15.05;90.47;98064.50;6224518;22;20354;-90
2022/09/11 05:26:35;;;;;;;1.60;1.50;;;;;;;15.15;90.24;98073.50;6222817;23;20020;-89
2022/09/11 05:29:12;;;;;;;1.73;1.63;;;;;;;15.22;90.19;98074.16;6218966;23;20084;-89
2022/09/11 05:31:40;;;;;;;1.35;1.25;;;;;;;15.25;89.69;98073.72;6219552;23;20095;-92
2022/09/11 05:34:07;;;;;;;1.88;1.75;;;;;;;15.35;89.72;98074.97;6221514;23;20471;-90
2022/09/11 05:36:34;;;;;;;1.30;1.20;;;;;;;15.39;89.85;98078.78;6219333;23;20027;-90
2022/09/11 05:39:03;;;;;;;1.60;1.50;;;;;;;15.48;89.46;98094.06;6194716;23;20016;-92
2022/09/11 05:41:29;;;;;;;1.52;1.42;;;;;;;15.48;89.06;98104.63;6226801;23;20016;-91
2022/09/11 05:43:58;;;;;;;2.00;1.48;;;;;;;15.52;89.41;98108.41;6220683;23;20024;-92
2022/09/11 05:46:24;;;;;;;1.75;1.60;;;;;;;15.58;89.32;98108.53;6196313;23;20020;-90
2022/09/11 05:48:51;;;;;;;1.83;1.73;;;;;;;15.57;89.21;98117.50;6196195;23;20024;-91
2022/09/11 05:51:20;;;;;;;2.60;2.40;;;;;;;15.52;88.62;98110.25;6220344;23;20079;-90
2022/09/11 05:53:52;;;;;;;1.85;1.65;;;;;;;15.54;88.60;98118.78;6247141;23;20020;-91
2022/09/11 05:56:23;;;;;;;2.15;1.95;;;;;;;15.42;88.77;98110.03;6193755;23;20083;-90
2022/09/11 05:58:51;;;;;;;1.77;1.67;;;;;;;15.52;88.88;98116.34;6220957;23;20016;-90
2022/09/11 06:01:21;;;;;;;2.40;2.10;;;;;;;15.46;88.35;98121.75;6195165;23;20058;-90
2022/09/11 06:03:49;;;;;;;2.05;1.95;;;;;;;15.45;88.78;98126.22;6195608;23;20020;-90
2022/09/11 06:06:18;;;;;;;1.70;1.42;;;;;;;15.55;89.30;98138.88;6221096;23;20031;-89
2022/09/11 06:08:48;;;;;;;1.92;1.83;;;;;;;15.55;89.27;98140.72;6218775;23;20012;-91
2022/09/11 06:11:32;;;;;;;2.17;2.00;;;;;;;15.54;89.66;98134.63;6221008;23;20052;-92
2022/09/11 06:14:00;;;;;;;2.05;1.95;;;;;;;15.54;89.38;98139.91;6219143;23;20406;-92
2022/09/11 06:16:30;;;;;;;2.47;2.28;;;;;;;15.55;89.22;98138.88;6244653;23;20020;-92
2022/09/11 06:18:57;;;;;;;3.47;2.30;;;;;;;15.52;89.41;98152.53;6220270;23;20027;-90
2022/09/11 06:21:26;;;;;;;1.90;1.80;;;;;;;15.61;89.38;98151.16;6194262;23;20067;-90
2022/09/11 06:23:54;;;;;;;2.00;1.70;;;;;;;15.62;89.43;98155.44;6218903;23;20016;-88
2022/09/11 06:26:24;;;;;;;2.33;2.10;;;;;;;15.63;89.00;98153.59;6245150;22;20341;-92
2022/09/11 06:28:53;;;;;;;1.83;1.73;;;;;;;15.65;89.17;98157.66;6224675;22;20069;-89
2022/09/11 06:31:23;;;;;;;2.47;2.20;;;;;;;15.65;89.49;98162.94;6223773;22;20331;-88
2022/09/11 06:33:50;;;;;;;2.53;2.33;;;;;;;15.65;89.42;98165.59;6250579;22;20020;-91
2022/09/11 06:36:31;;;;;;;1.95;1.85;;;;;;;15.58;88.16;98159.56;6251038;22;20016;-93
2022/09/11 06:39:01;;;;;;;1.55;1.45;;;;;;;15.75;89.45;98175.56;6250612;22;20019;-90
2022/09/11 06:41:30;;;;;;;1.40;1.30;;;;;;;15.73;89.46;98175.81;6250371;22;20087;-90
2022/09/11 06:43:58;;;;;;;1.60;1.50;;;;;;;15.79;88.85;98176.72;6227517;22;20019;-91
2022/09/11 06:46:25;;;;;;;1.92;1.60;;;;;;;15.85;88.74;98180.28;6250150;22;20020;-90
2022/09/11 06:48:53;;;;;;;1.80;1.70;;;;;;;15.87;88.07;98178.19;6222000;22;20057;-88
2022/09/11 06:51:22;;;;;;;1.88;1.77;;;;;;;15.85;87.13;98188.22;6247393;22;20020;-87
2022/09/11 06:53:55;;;;;;;1.77;1.67;;;;;;;15.96;88.04;98190.84;6275406;22;20042;-88
2022/09/11 06:56:24;;;;;;;2.00;1.80;;;;;;;15.96;87.83;98203.28;6275585;22;20011;-87
2022/09/11 06:58:51;;;;;;;1.55;1.45;;;;;;;15.99;88.30;98200.94;6247968;22;20050;-90
2022/09/11 07:01:21;;;;;;;1.90;1.80;;;;;;;16.08;88.16;98203.28;6276234;22;20023;-90
2022/09/11 07:03:52;;;;;;;1.70;1.60;;;;;;;16.05;86.91;98196.59;6274722;22;20619;-91
2022/09/11 07:06:25;;;;;;;2.30;2.10;;;;;;;16.03;87.91;98206.59;6248432;22;20226;-91
2022/09/11 07:09:01;;;;;;;1.70;1.50;;;;;;;16.06;88.12;98188.41;6245057;22;20376;-90
2022/09/11 07:11:33;;;;;;;2.90;2.30;;;;;;;16.00;87.06;98214.97;6248923;22;20031;-90
2022/09/11 07:14:07;;;;;;;2.47;1.85;;;;;;;15.96;85.92;98208.56;6247726;22;20016;-91
2022/09/11 07:16:38;;;;;;;1.85;1.75;;;;;;;15.97;86.67;98195.09;6249218;22;20024;-92
2022/09/11 07:19:08;;;;;;;;;;;;;;;16.23;87.30;98217.59;6248439;22;20024;-90
2022/09/11 07:21:37;;;;;;;1.60;1.50;;;;;;;16.28;86.39;98211.63;6274994;22;19915;-90
2022/09/11 07:24:08;;;;;;;1.80;1.70;;;;;;;16.32;85.98;98210.13;6274181;22;20380;-90
2022/09/11 07:26:38;;;;;;;2.05;1.90;;;;;;;16.32;85.41;98205.63;6219489;23;20111;-92
2022/09/11 07:29:05;;;;;;;1.42;1.33;;;;;;;16.50;85.55;98217.91;6216972;23;20696;-90
2022/09/11 07:31:37;;;;;;;1.80;1.70;;;;;;;16.50;84.31;98227.69;6216698;23;20024;-91
2022/09/11 07:34:12;;;;;;;1.60;1.50;;;;;;;16.54;85.76;98223.53;6218134;23;20066;-90
2022/09/11 07:36:40;;;;;;;1.90;1.65;;;;;;;16.65;84.62;98238.56;6216060;23;20024;-91
2022/09/11 07:39:07;;;;;;;1.95;1.48;;;;;;;16.65;85.70;98227.97;6244129;23;20067;-90
2022/09/11 07:41:37;;;;;;;1.50;1.40;;;;;;;16.73;85.26;98238.25;6218002;23;20090;-91
2022/09/11 07:44:05;;;;;;;1.60;1.50;;;;;;;16.75;84.74;98236.16;6244618;23;20016;-91
2022/09/11 07:46:32;;;;;;;1.20;1.13;;;;;;;16.85;84.45;98246.13;6217398;23;20016;-90
2022/09/11 07:49:11;;;;;;;1.58;1.27;;;;;;;16.79;83.50;98236.47;6217997;23;20016;-91
2022/09/11 07:51:41;;;;;;;1.40;1.30;;;;;;;16.92;83.32;98238.88;6218014;23;20023;-91
2022/09/11 07:54:09;;;;;;;1.63;1.52;;;;;;;16.80;82.32;98244.22;6192154;23;20042;-88
2022/09/11 07:56:39;;;;;;;1.70;1.60;;;;;;;16.91;82.49;98257.63;6218021;23;20726;-89
2022/09/11 07:59:12;;;;;;;1.15;1.15;;;;;;;16.98;84.34;98255.66;6244811;23;20020;-91
2022/09/11 08:01:41;;;;;;;1.70;1.60;;;;;;;16.99;82.31;98262.56;6218590;23;20024;-89
2022/09/11 08:04:13;;;;;;;1.20;1.20;;;;;;;17.17;83.44;98269.53;6245906;23;20016;-89
2022/09/11 08:06:40;;;;;;;1.10;1.10;;;;;;;17.23;82.57;98258.78;6219139;23;20023;-91
2022/09/11 08:09:14;;;;;;;1.13;1.13;;;;;;;17.39;82.94;98275.72;6190028;23;20504;-90
2022/09/11 08:12:00;;;;;;;1.02;1.02;;;;;;;17.37;81.32;98265.38;6223627;23;20012;-88
2022/09/11 08:14:27;;;;;;;1.27;1.20;;;;;;;17.56;82.26;98278.41;6219121;23;20088;-90
2022/09/11 08:16:58;;;;;;;1.70;1.60;;;;;;;17.32;80.95;98267.94;6219919;23;20016;-87
2022/09/11 08:19:25;;;;;;;1.67;1.40;;;;;;;17.36;80.31;98269.06;6221398;23;20101;-88
2022/09/11 08:21:52;;;;;;;1.20;1.10;;;;;;;17.49;81.66;98293.66;6219447;23;20081;-88
2022/09/11 08:24:20;;;;;;;1.30;1.20;;;;;;;17.37;81.05;98280.47;6220572;23;20034;-89
2022/09/11 08:26:47;;;;;;;1.30;1.20;;;;;;;17.45;81.54;98281.91;6245040;23;20484;-87
2022/09/11 08:29:15;;;;;;;1.00;1.00;;;;;;;17.54;80.51;98280.50;6218872;23;20046;-86
2022/09/11 08:31:41;;;;;;;1.77;1.10;;;;;;;17.69;81.70;98291.34;6218122;23;20013;-86
2022/09/11 08:34:09;;;;;;;2.00;1.40;;;;;;;17.78;80.02;98297.09;6245565;23;20039;-89
2022/09/11 08:36:36;;;;;;;1.55;1.45;;;;;;;17.65;79.66;98291.03;6245583;23;20388;-88
2022/09/11 08:39:04;;;;;;;1.40;1.30;;;;;;;17.77;79.87;98295.50;6245367;23;20342;-88
2022/09/11 08:42:02;;;;;;;1.42;1.33;;;;;;;17.91;79.56;98304.72;6245435;23;20630;-85
2022/09/11 08:44:46;;;;;;;1.00;1.00;;;;;;;18.00;79.75;98300.66;6220702;23;20051;-89
2022/09/11 08:47:23;;;;;;;1.60;1.50;;;;;;;18.04;78.70;98307.06;6220555;23;20047;-90
2022/09/11 08:50:22;;;;;;;1.23;1.15;;;;;;;18.21;79.54;98320.31;6244416;23;20111;-86
2022/09/11 08:52:48;;;;;;;1.55;1.45;;;;;;;18.12;76.96;98319.13;6245578;23;20584;-86
2022/09/11 08:55:43;;;;;;;1.75;1.65;;;;;;;18.02;78.30;98313.66;6219976;23;20030;-90
2022/09/11 08:58:17;;;;;;;2.00;1.80;;;;;;;17.99;76.48;98319.44;6220912;23;20027;-88
2022/09/11 09:01:11;;;;;;;2.00;1.85;;;;;;;17.95;76.88;98324.44;6222347;23;20087;-90
2022/09/11 09:04:23;;;;;;;2.13;1.90;;;;;;;18.13;77.44;98326.84;6187951;23;20024;-86
2022/09/11 09:07:34;;;;;;;2.17;1.98;;;;;;;18.27;75.56;98322.00;6248755;23;20091;-90
2022/09/11 09:10:26;;;;;;;1.52;1.42;;;;;;;18.43;76.41;98331.00;6246864;23;20023;-88
2022/09/11 09:13:33;;;;;;;1.58;1.48;;;;;;;18.30;78.03;98326.84;6250355;23;20016;-92
2022/09/11 09:16:25;;;;;;;2.25;1.52;;;;;;;18.19;77.20;98325.06;6223617;23;20016;-89
2022/09/11 09:19:13;;;;;;;1.70;1.60;;;;;;;18.14;76.26;98328.44;6200469;23;20056;-92
2022/09/11 09:22:08;;;;;;;2.45;2.00;;;;;;;17.83;76.38;98337.78;6247722;23;20016;-87
2022/09/11 09:24:47;;;;;;;2.20;2.00;;;;;;;17.84;77.99;98342.03;6244595;22;20072;-91
2022/09/11 09:27:35;;;;;;;2.65;1.75;;;;;;;17.89;77.88;98336.03;6221154;23;20112;-92
2022/09/11 09:30:12;;;;;;;1.73;1.58;;;;;;;18.08;77.91;98334.72;6223358;23;20035;-90
2022/09/11 09:32:53;;;;;;;1.80;1.70;;;;;;;18.29;77.07;98341.16;6220552;23;20020;-86
2022/09/11 09:35:38;;;;;;;1.70;1.60;;;;;;;18.41;75.86;98339.22;6247224;23;20020;-91
2022/09/11 09:38:18;;;;;;;1.90;1.80;;;;;;;18.73;75.50;98335.94;6220858;23;20272;-90
2022/09/11 09:41:48;;;;;;;2.60;2.40;;;;;;;18.86;73.26;98332.91;6247363;23;20035;-90
2022/09/11 09:45:02;;;;;;;2.38;2.17;;;;;;;18.89;73.17;98336.94;6130804;23;20026;-92
2022/09/11 09:47:29;;;;;;;3.55;2.80;;;;;;;18.65;73.81;98328.34;6210145;23;20020;-88
2022/09/11 09:49:57;;;;;;;2.08;1.98;;;;;;;18.74;71.49;98340.22;6248455;23;20043;-91
2022/09/11 09:52:32;;;;;;;2.50;2.30;;;;;;;18.74;72.78;98342.88;6221314;23;20016;-89
2022/09/11 09:55:04;;;;;;;2.70;2.00;;;;;;;18.53;73.34;98331.16;6248202;23;20024;-89
2022/09/11 09:57:36;;;;;;;2.17;1.98;;;;;;;18.57;73.79;98342.88;6196603;23;20457;-91
2022/09/11 10:00:10;;;;;;;2.60;2.28;;;;;;;18.51;73.13;98353.66;6220246;23;20012;-90
2022/09/11 10:02:48;;;;;;;2.55;2.35;;;;;;;18.53;73.27;98339.13;6221913;23;20020;-93
2022/09/11 10:05:18;;;;;;;1.88;1.77;;;;;;;18.75;72.47;98339.16;6219400;23;20401;-91
2022/09/11 10:07:52;;;;;;;2.38;2.00;;;;;;;18.88;72.73;98333.47;6218478;23;20480;-93
2022/09/11 10:10:33;;;;;;;2.90;2.28;;;;;;;19.11;73.23;98339.59;6219681;23;20015;-89
2022/09/11 10:13:24;;;;;;;2.10;1.90;;;;;;;19.17;72.62;98335.94;6196267;23;20722;-90
2022/09/11 10:16:00;;;;;;;2.65;2.22;;;;;;;19.05;72.01;98316.66;6195920;23;20083;-91
2022/09/11 10:18:42;;;;;;;3.03;2.40;;;;;;;18.99;71.83;98335.19;6221906;23;20613;-89
2022/09/11 10:21:18;;;;;;;2.60;2.40;;;;;;;19.01;70.99;98336.81;6195369;23;20020;-91
2022/09/11 10:23:56;;;;;;;2.00;1.90;;;;;;;19.23;72.77;98337.59;6217864;23;20686;-90
2022/09/11 10:26:38;;;;;;;2.45;2.03;;;;;;;19.36;73.17;98339.06;6219444;23;20095;-89
2022/09/11 10:29:18;;;;;;;2.30;1.80;;;;;;;19.53;72.50;98340.56;6224320;23;20016;-91
2022/09/11 10:31:54;;;;;;;2.33;2.13;;;;;;;19.51;72.23;98344.53;6218962;23;20361;-90
2022/09/11 10:34:25;;;;;;;1.83;1.70;;;;;;;19.46;72.51;98337.31;6245200;23;20039;-89
2022/09/11 10:37:02;;;;;;;2.00;1.90;;;;;;;19.43;70.97;98337.81;6192446;23;20099;-90
2022/09/11 10:39:35;;;;;;;2.40;2.20;;;;;;;19.20;70.83;98319.50;6218743;23;20042;-89
2022/09/11 10:42:24;;;;;;;2.10;1.90;;;;;;;19.16;71.39;98329.00;6193353;23;20350;-89
2022/09/11 10:44:56;;;;;;;2.10;2.00;;;;;;;19.48;70.35;98335.19;6195264;23;20023;-90
2022/09/11 10:47:27;;;;;;;2.35;2.15;;;;;;;19.80;71.16;98339.00;6245675;23;20457;-89
2022/09/11 10:50:16;;;;;;;2.63;2.42;;;;;;;19.91;68.83;98344.16;6218351;23;20415;-90
2022/09/11 10:53:04;;;;;;;2.72;2.53;;;;;;;20.00;67.69;98345.28;6194777;23;20035;-91
2022/09/11 10:55:43;;;;;;;2.40;2.30;;;;;;;20.26;66.50;98343.59;6221451;23;20342;-91
2022/09/11 10:58:18;;;;;;;3.58;3.28;;;;;;;20.19;63.75;98337.69;6219655;23;20021;-90
2022/09/11 11:00:46;;;;;;;2.45;2.28;;;;;;;20.32;64.05;98344.44;6220219;23;20020;-91
2022/09/11 11:03:23;;;;;;;3.25;2.95;;;;;;;19.98;64.08;98335.94;6194347;23;20074;-89
2022/09/11 11:06:24;;;;;;;3.10;2.90;;;;;;;19.61;66.49;98346.50;6220530;23;20464;-90
2022/09/11 11:09:21;;;;;;;3.75;3.45;;;;;;;19.25;68.07;98349.59;6214262;23;20047;-91
2022/09/11 11:12:21;;;;;;;2.90;2.70;;;;;;;19.20;68.19;98346.88;6247418;23;20051;-89
2022/09/11 11:15:40;;;;;;;2.90;2.70;;;;;;;19.50;67.22;98354.38;6192700;23;20016;-91
2022/09/11 11:18:41;;;;;;;2.28;2.08;;;;;;;20.31;67.62;98342.84;6194459;23;20047;-91
2022/09/11 11:21:41;;;;;;;2.20;2.10;;;;;;;20.49;66.13;98337.13;6224285;23;20043;-93
2022/09/11 11:24:27;;;;;;;2.90;2.70;;;;;;;20.32;65.51;98331.13;6195377;23;20074;-92
2022/09/11 11:27:38;;;;;;;2.83;2.63;;;;;;;20.26;65.78;98348.13;6195502;23;20020;-93
2022/09/11 11:30:18;;;;;;;3.40;3.13;;;;;;;20.04;63.11;98340.25;6194423;23;20050;-88
2022/09/11 11:33:16;;;;;;;2.55;2.35;;;;;;;19.91;64.26;98325.53;6247778;23;20346;-93
2022/09/11 11:35:59;;;;;;;2.40;2.20;;;;;;;19.90;63.53;98333.72;6199885;23;20024;-91
2022/09/11 11:38:42;;;;;;;2.38;2.28;;;;;;;19.77;63.92;98342.94;6225087;23;20410;-86
2022/09/11 11:41:24;;;;;;;3.15;2.63;;;;;;;19.86;66.93;98345.97;6226799;23;20039;-91
2022/09/11 11:43:55;;;;;;;2.60;2.40;;;;;;;19.82;64.78;98335.00;6226129;23;20051;-88
2022/09/11 11:46:37;;;;;;;2.60;2.40;;;;;;;19.75;63.41;98329.91;6219325;23;20026;-86
2022/09/11 11:49:21;;;;;;;2.33;2.13;;;;;;;19.77;65.37;98345.59;6219444;23;20070;-86
2022/09/11 11:52:12;;;;;;;2.97;2.67;;;;;;;19.60;63.62;98353.69;6218905;23;20012;-85
2022/09/11 11:54:51;;;;;;;2.88;2.67;;;;;;;19.60;63.24;98355.56;6245462;23;20096;-84
2022/09/11 11:57:24;;;;;;;2.92;2.72;;;;;;;19.65;64.10;98352.94;6245993;23;20045;-86
2022/09/11 12:00:07;;;;;;;2.90;2.70;;;;;;;19.76;62.52;98349.31;6246669;23;20099;-88
2022/09/11 12:02:48;;;;;;;2.78;2.58;;;;;;;19.90;64.37;98339.84;6219252;23;20016;-88
2022/09/11 12:05:24;;;;;;;3.83;3.53;;;;;;;20.04;61.87;98341.06;6240659;23;20061;-89
2022/09/11 12:07:53;;;;;;;3.97;3.60;;;;;;;19.82;63.09;98340.34;6217087;23;20430;-88
2022/09/11 12:10:36;;;;;;;3.20;2.97;;;;;;;19.73;62.40;98336.50;6217853;23;20019;-87
2022/09/11 12:13:16;;;;;;;3.70;3.40;;;;;;;19.65;61.87;98344.97;6219191;23;20066;-90